sensor_id;sensor_type;location;lat;lon;timestamp;pressure;altitude;pressure_sealevel;temperature;humidity
14120;BME280;7138;49.246;9.100;2023-01-24T00:00:26;100253.78;;;3.68;95.51
14120;BME280;7138;49.246;9.100;2023-01-24T00:02:53;100264.72;;;3.66;95.54
14120;BME280;7138;49.246;9.100;2023-01-24T00:05:19;100262.25;;;3.67;95.21
14120;BME280;7138;49.246;9.100;2023-01-24T00:07:45;100278.72;;;3.72;95.31
14120;BME280;7138;49.246;9.100;2023-01-24T00:10:11;100252.88;;;3.68;95.34
14120;BME280;7138;49.246;9.100;2023-01-24T00:12:37;100264.63;;;3.80;95.00
14120;BME280;7138;49.246;9.100;2023-01-24T00:15:04;100260.22;;;3.78;94.66
14120;BME280;7138;49.246;9.100;2023-01-24T00:17:30;100257.03;;;3.82;95.15
14120;BME280;7138;49.246;9.100;2023-01-24T00:19:58;100259.75;;;3.85;94.60
14120;BME280;7138;49.246;9.100;2023-01-24T00:22:23;100259.81;;;3.86;94.78
14120;BME280;7138;49.246;9.100;2023-01-24T00:24:49;100255.84;;;3.75;94.68
14120;BME280;7138;49.246;9.100;2023-01-24T00:27:16;100253.34;;;3.77;94.64
14120;BME280;7138;49.246;9.100;2023-01-24T00:29:43;100250.47;;;3.71;94.95
14120;BME280;7138;49.246;9.100;2023-01-24T00:32:09;100249.59;;;3.86;94.65
14120;BME280;7138;49.246;9.100;2023-01-24T00:34:35;100258.41;;;3.92;94.64
14120;BME280;7138;49.246;9.100;2023-01-24T00:37:02;100265.66;;;3.84;94.23
14120;BME280;7138;49.246;9.100;2023-01-24T00:39:28;100261.50;;;3.86;94.58
14120;BME280;7138;49.246;9.100;2023-01-24T00:41:54;100263.84;;;3.81;94.71
14120;BME280;7138;49.246;9.100;2023-01-24T00:44:20;100259.03;;;3.88;94.82
14120;BME280;7138;49.246;9.100;2023-01-24T00:46:46;100273.44;;;3.85;94.43
14120;BME280;7138;49.246;9.100;2023-01-24T00:49:11;100258.94;;;3.86;94.52
14120;BME280;7138;49.246;9.100;2023-01-24T00:51:37;100267.75;;;3.91;94.41
14120;BME280;7138;49.246;9.100;2023-01-24T00:54:04;100273.00;;;3.94;94.47
14120;BME280;7138;49.246;9.100;2023-01-24T00:56:30;100272.22;;;3.95;93.94
14120;BME280;7138;49.246;9.100;2023-01-24T00:58:56;100271.19;;;3.92;94.32
14120;BME280;7138;49.246;9.100;2023-01-24T01:01:22;100282.78;;;3.85;94.41
14120;BME280;7138;49.246;9.100;2023-01-24T01:03:48;100276.63;;;3.81;94.88
14120;BME280;7138;49.246;9.100;2023-01-24T01:06:15;100284.88;;;3.76;95.26
14120;BME280;7138;49.246;9.100;2023-01-24T01:08:42;100290.13;;;3.79;94.96
14120;BME280;7138;49.246;9.100;2023-01-24T01:11:09;100291.19;;;3.82;94.93
14120;BME280;7138;49.246;9.100;2023-01-24T01:13:35;100298.19;;;3.86;94.99
14120;BME280;7138;49.246;9.100;2023-01-24T01:16:03;100295.56;;;3.85;95.11
14120;BME280;7138;49.246;9.100;2023-01-24T01:18:29;100280.59;;;3.93;94.78
14120;BME280;7138;49.246;9.100;2023-01-24T01:20:55;100295.25;;;3.95;94.97
14120;BME280;7138;49.246;9.100;2023-01-24T01:23:21;100291.56;;;3.90;94.44
14120;BME280;7138;49.246;9.100;2023-01-24T01:25:47;100288.53;;;3.97;94.33
14120;BME280;7138;49.246;9.100;2023-01-24T01:28:14;100291.56;;;3.90;94.72
14120;BME280;7138;49.246;9.100;2023-01-24T01:30:40;100295.56;;;3.85;94.55
14120;BME280;7138;49.246;9.100;2023-01-24T01:33:06;100278.88;;;3.92;94.72
14120;BME280;7138;49.246;9.100;2023-01-24T01:35:32;100289.97;;;3.92;94.62
14120;BME280;7138;49.246;9.100;2023-01-24T01:37:58;100282.38;;;3.94;94.55
14120;BME280;7138;49.246;9.100;2023-01-24T01:40:23;100280.22;;;3.85;94.29
14120;BME280;7138;49.246;9.100;2023-01-24T01:42:52;100291.72;;;3.77;94.89
14120;BME280;7138;49.246;9.100;2023-01-24T01:45:37;100294.53;;;3.81;95.25
14120;BME280;7138;49.246;9.100;2023-01-24T01:48:17;100292.28;;;3.71;95.35
14120;BME280;7138;49.246;9.100;2023-01-24T01:50:50;100288.94;;;3.72;95.13
14120;BME280;7138;49.246;9.100;2023-01-24T01:53:18;100299.06;;;3.71;95.24
14120;BME280;7138;49.246;9.100;2023-01-24T01:55:50;100293.09;;;3.70;95.57
14120;BME280;7138;49.246;9.100;2023-01-24T01:58:18;100298.38;;;3.73;95.84
14120;BME280;7138;49.246;9.100;2023-01-24T02:00:47;100288.06;;;3.72;95.48
14120;BME280;7138;49.246;9.100;2023-01-24T02:03:24;100295.09;;;3.76;95.61
14120;BME280;7138;49.246;9.100;2023-01-24T02:06:18;100301.94;;;3.77;95.43
14120;BME280;7138;49.246;9.100;2023-01-24T02:08:48;100295.09;;;3.76;95.89
14120;BME280;7138;49.246;9.100;2023-01-24T02:11:16;100297.56;;;3.74;95.39
14120;BME280;7138;49.246;9.100;2023-01-24T02:14:00;100305.72;;;3.83;95.32
14120;BME280;7138;49.246;9.100;2023-01-24T02:16:47;100315.47;;;3.74;95.33
14120;BME280;7138;49.246;9.100;2023-01-24T02:22:16;100317.31;;;3.61;95.58
14120;BME280;7138;49.246;9.100;2023-01-24T02:24:55;100310.75;;;3.66;95.75
14120;BME280;7138;49.246;9.100;2023-01-24T02:27:26;100315.66;;;3.61;96.31
14120;BME280;7138;49.246;9.100;2023-01-24T02:29:55;100318.81;;;3.57;96.31
14120;BME280;7138;49.246;9.100;2023-01-24T02:32:21;100325.72;;;3.58;96.26
14120;BME280;7138;49.246;9.100;2023-01-24T02:34:47;100320.81;;;3.63;96.02
14120;BME280;7138;49.246;9.100;2023-01-24T02:37:13;100326.50;;;3.57;95.95
14120;BME280;7138;49.246;9.100;2023-01-24T02:39:46;100319.56;;;3.55;97.10
14120;BME280;7138;49.246;9.100;2023-01-24T02:42:20;100335.28;;;3.62;96.87
14120;BME280;7138;49.246;9.100;2023-01-24T02:44:54;100330.44;;;3.67;96.05
14120;BME280;7138;49.246;9.100;2023-01-24T02:47:26;100326.19;;;3.67;96.49
14120;BME280;7138;49.246;9.100;2023-01-24T02:49:57;100319.38;;;3.68;96.51
14120;BME280;7138;49.246;9.100;2023-01-24T02:52:23;100320.34;;;3.70;96.66
14120;BME280;7138;49.246;9.100;2023-01-24T02:55:08;100317.13;;;3.74;96.49
14120;BME280;7138;49.246;9.100;2023-01-24T02:57:34;100310.13;;;3.70;96.12
14120;BME280;7138;49.246;9.100;2023-01-24T03:00:20;100323.81;;;3.70;95.98
14120;BME280;7138;49.246;9.100;2023-01-24T03:02:46;100325.63;;;3.73;96.56
14120;BME280;7138;49.246;9.100;2023-01-24T03:05:12;100322.19;;;3.72;95.97
14120;BME280;7138;49.246;9.100;2023-01-24T03:07:38;100326.56;;;3.75;96.60
14120;BME280;7138;49.246;9.100;2023-01-24T03:10:11;100331.06;;;3.79;96.22
14120;BME280;7138;49.246;9.100;2023-01-24T03:12:38;100322.09;;;3.87;95.76
14120;BME280;7138;49.246;9.100;2023-01-24T03:15:25;100334.34;;;3.76;95.88
14120;BME280;7138;49.246;9.100;2023-01-24T03:18:10;100330.25;;;3.80;95.88
14120;BME280;7138;49.246;9.100;2023-01-24T03:20:55;100325.78;;;3.76;96.04
14120;BME280;7138;49.246;9.100;2023-01-24T03:23:39;100337.69;;;3.75;95.55
14120;BME280;7138;49.246;9.100;2023-01-24T03:26:24;100326.56;;;3.75;96.29
14120;BME280;7138;49.246;9.100;2023-01-24T03:29:10;100323.88;;;3.72;95.76
14120;BME280;7138;49.246;9.100;2023-01-24T03:31:56;100327.72;;;3.64;95.87
14120;BME280;7138;49.246;9.100;2023-01-24T03:34:40;100320.19;;;3.67;96.01
14120;BME280;7138;49.246;9.100;2023-01-24T03:37:16;100317.13;;;3.74;95.98
14120;BME280;7138;49.246;9.100;2023-01-24T03:39:43;100332.16;;;3.68;96.49
14120;BME280;7138;49.246;9.100;2023-01-24T03:42:25;100316.50;;;3.78;96.22
14120;BME280;7138;49.246;9.100;2023-01-24T03:44:52;100322.50;;;3.78;95.95
14120;BME280;7138;49.246;9.100;2023-01-24T03:47:19;100310.44;;;3.76;96.26
14120;BME280;7138;49.246;9.100;2023-01-24T03:49:46;100319.53;;;3.71;96.28
14120;BME280;7138;49.246;9.100;2023-01-24T03:52:30;100320.69;;;3.76;96.11
14120;BME280;7138;49.246;9.100;2023-01-24T03:54:57;100299.06;;;3.71;95.57
14120;BME280;7138;49.246;9.100;2023-01-24T03:57:24;100321.00;;;3.82;95.95
14120;BME280;7138;49.246;9.100;2023-01-24T03:59:51;100316.50;;;3.78;95.37
14120;BME280;7138;49.246;9.100;2023-01-24T04:02:19;100326.13;;;3.82;95.48
14120;BME280;7138;49.246;9.100;2023-01-24T04:04:45;100299.41;;;3.77;94.84
14120;BME280;7138;49.246;9.100;2023-01-24T04:07:31;100318.84;;;3.73;95.33
14120;BME280;7138;49.246;9.100;2023-01-24T04:09:57;100318.28;;;3.79;95.50
14120;BME280;7138;49.246;9.100;2023-01-24T04:12:24;100310.91;;;3.85;95.62
14120;BME280;7138;49.246;9.100;2023-01-24T04:14:50;100311.13;;;3.90;95.47
14120;BME280;7138;49.246;9.100;2023-01-24T04:17:16;100320.59;;;3.91;95.16
14120;BME280;7138;49.246;9.100;2023-01-24T04:19:43;100314.69;;;3.92;95.56
14120;BME280;7138;49.246;9.100;2023-01-24T04:22:09;100297.09;;;3.81;95.17
14120;BME280;7138;49.246;9.100;2023-01-24T04:24:35;100323.78;;;3.86;95.56
14120;BME280;7138;49.246;9.100;2023-01-24T04:27:01;100312.91;;;3.91;95.40
14120;BME280;7138;49.246;9.100;2023-01-24T04:29:26;100324.19;;;3.94;95.06
14120;BME280;7138;49.246;9.100;2023-01-24T04:31:52;100323.94;;;3.90;95.35
14120;BME280;7138;49.246;9.100;2023-01-24T04:34:18;100317.13;;;3.90;95.06
14120;BME280;7138;49.246;9.100;2023-01-24T04:36:45;100322.09;;;3.87;95.76
14120;BME280;7138;49.246;9.100;2023-01-24T04:39:11;100323.72;;;3.85;95.40
14120;BME280;7138;49.246;9.100;2023-01-24T04:41:37;100329.16;;;3.91;95.65
14120;BME280;7138;49.246;9.100;2023-01-24T04:44:03;100322.34;;;3.92;95.30
14120;BME280;7138;49.246;9.100;2023-01-24T04:46:29;100317.97;;;3.89;95.15
14120;BME280;7138;49.246;9.100;2023-01-24T04:48:55;100307.47;;;3.84;95.02
14120;BME280;7138;49.246;9.100;2023-01-24T04:51:21;100332.44;;;3.89;95.42
14120;BME280;7138;49.246;9.100;2023-01-24T04:53:48;100323.16;;;3.91;95.65
14120;BME280;7138;49.246;9.100;2023-01-24T04:56:14;100323.47;;;3.97;95.72
14120;BME280;7138;49.246;9.100;2023-01-24T04:58:40;100322.56;;;3.96;95.58
14120;BME280;7138;49.246;9.100;2023-01-24T05:01:05;100327.84;;;3.99;95.09
14120;BME280;7138;49.246;9.100;2023-01-24T05:03:31;100329.47;;;3.97;95.26
14120;BME280;7138;49.246;9.100;2023-01-24T05:05:57;100337.44;;;4.03;95.07
14120;BME280;7138;49.246;9.100;2023-01-24T05:08:23;100332.97;;;3.99;95.34
14120;BME280;7138;49.246;9.100;2023-01-24T05:10:50;100329.78;;;4.03;95.39
14120;BME280;7138;49.246;9.100;2023-01-24T05:13:16;100330.88;;;4.08;94.63
14120;BME280;7138;49.246;9.100;2023-01-24T05:15:46;100339.44;;;4.09;94.29
14120;BME280;7138;49.246;9.100;2023-01-24T05:18:12;100336.16;;;4.11;94.68
14120;BME280;7138;49.246;9.100;2023-01-24T05:20:38;100336.81;;;4.07;94.64
14120;BME280;7138;49.246;9.100;2023-01-24T05:23:03;100340.91;;;4.04;94.61
14120;BME280;7138;49.246;9.100;2023-01-24T05:25:29;100347.28;;;3.96;94.49
14120;BME280;7138;49.246;9.100;2023-01-24T05:27:56;100344.72;;;3.96;94.71
14120;BME280;7138;49.246;9.100;2023-01-24T05:30:22;100347.91;;;4.08;94.64
14120;BME280;7138;49.246;9.100;2023-01-24T05:32:48;100355.38;;;4.03;94.77
14120;BME280;7138;49.246;9.100;2023-01-24T05:35:14;100347.69;;;4.03;94.65
14120;BME280;7138;49.246;9.100;2023-01-24T05:37:40;100347.13;;;4.09;94.83
14120;BME280;7138;49.246;9.100;2023-01-24T05:40:08;100353.59;;;4.02;94.47
14120;BME280;7138;49.246;9.100;2023-01-24T05:42:34;100362.25;;;4.04;94.75
14120;BME280;7138;49.246;9.100;2023-01-24T05:45:02;100361.22;;;4.01;94.71
14120;BME280;7138;49.246;9.100;2023-01-24T05:47:27;100370.41;;;3.97;95.02
14120;BME280;7138;49.246;9.100;2023-01-24T05:49:53;100364.41;;;3.97;95.28
14120;BME280;7138;49.246;9.100;2023-01-24T05:52:19;100365.75;;;4.06;94.93
14120;BME280;7138;49.246;9.100;2023-01-24T05:54:48;100366.06;;;4.12;94.59
14120;BME280;7138;49.246;9.100;2023-01-24T05:57:14;100371.03;;;4.09;94.59
14120;BME280;7138;49.246;9.100;2023-01-24T05:59:40;100373.50;;;4.08;94.87
14120;BME280;7138;49.246;9.100;2023-01-24T06:02:07;100376.88;;;4.07;94.72
14120;BME280;7138;49.246;9.100;2023-01-24T06:04:33;100384.81;;;3.95;94.81
14120;BME280;7138;49.246;9.100;2023-01-24T06:06:59;100380.16;;;4.04;95.01
14120;BME280;7138;49.246;9.100;2023-01-24T06:09:24;100385.28;;;4.04;95.21
14120;BME280;7138;49.246;9.100;2023-01-24T06:11:50;100394.31;;;3.98;95.22
14120;BME280;7138;49.246;9.100;2023-01-24T06:14:19;100395.81;;;3.94;95.20
14120;BME280;7138;49.246;9.100;2023-01-24T06:16:46;100400.53;;;3.86;95.82
14120;BME280;7138;49.246;9.100;2023-01-24T06:19:15;100395.88;;;3.96;95.61
14120;BME280;7138;49.246;9.100;2023-01-24T06:21:45;100405.50;;;4.00;95.69
14120;BME280;7138;49.246;9.100;2023-01-24T06:24:18;100399.59;;;4.01;95.37
14120;BME280;7138;49.246;9.100;2023-01-24T06:26:45;100400.53;;;4.03;95.58
14120;BME280;7138;49.246;9.100;2023-01-24T06:29:13;100414.22;;;4.03;95.51
14120;BME280;7138;49.246;9.100;2023-01-24T06:31:50;100404.88;;;4.04;95.35
14120;BME280;7138;49.246;9.100;2023-01-24T06:34:51;100404.88;;;4.04;95.01
14120;BME280;7138;49.246;9.100;2023-01-24T06:37:31;100411.66;;;4.03;95.46
14120;BME280;7138;49.246;9.100;2023-01-24T06:40:00;100408.78;;;3.97;95.26
14120;BME280;7138;49.246;9.100;2023-01-24T06:42:26;100415.00;;;4.02;95.46
14120;BME280;7138;49.246;9.100;2023-01-24T06:44:52;100429.09;;;3.94;95.76
14120;BME280;7138;49.246;9.100;2023-01-24T06:47:18;100424.59;;;3.90;95.93
14120;BME280;7138;49.246;9.100;2023-01-24T06:49:45;100422.47;;;3.98;95.73
14120;BME280;7138;49.246;9.100;2023-01-24T06:52:12;100429.78;;;4.08;95.83
14120;BME280;7138;49.246;9.100;2023-01-24T06:54:38;100425.72;;;4.11;95.33
14120;BME280;7138;49.246;9.100;2023-01-24T06:57:04;100429.97;;;4.11;95.20
14120;BME280;7138;49.246;9.100;2023-01-24T06:59:30;100442.84;;;4.12;95.29
14120;BME280;7138;49.246;9.100;2023-01-24T07:01:56;100439.50;;;4.13;95.18
14120;BME280;7138;49.246;9.100;2023-01-24T07:04:22;100443.75;;;4.13;95.32
14120;BME280;7138;49.246;9.100;2023-01-24T07:06:49;100439.19;;;4.07;95.49
14120;BME280;7138;49.246;9.100;2023-01-24T07:09:22;100443.41;;;4.07;94.93
14120;BME280;7138;49.246;9.100;2023-01-24T07:11:49;100445.41;;;4.12;94.57
14120;BME280;7138;49.246;9.100;2023-01-24T07:14:18;100436.22;;;4.16;95.11
14120;BME280;7138;49.246;9.100;2023-01-24T07:16:44;100446.03;;;4.08;94.93
14120;BME280;7138;49.246;9.100;2023-01-24T07:19:15;100447.66;;;4.06;95.06
14120;BME280;7138;49.246;9.100;2023-01-24T07:21:43;100449.25;;;4.04;94.97
14120;BME280;7138;49.246;9.100;2023-01-24T07:24:15;100446.75;;;4.06;95.30
14120;BME280;7138;49.246;9.100;2023-01-24T07:26:43;100450.50;;;3.96;95.20
14120;BME280;7138;49.246;9.100;2023-01-24T07:29:09;100442.03;;;3.97;95.18
14120;BME280;7138;49.246;9.100;2023-01-24T07:31:35;100446.75;;;4.06;95.23
14120;BME280;7138;49.246;9.100;2023-01-24T07:34:01;100451.66;;;4.01;95.01
14120;BME280;7138;49.246;9.100;2023-01-24T07:36:26;100432.91;;;4.02;95.09
14120;BME280;7138;49.246;9.100;2023-01-24T07:38:53;100437.56;;;4.09;95.16
14120;BME280;7138;49.246;9.100;2023-01-24T07:41:20;100428.22;;;4.10;95.18
14120;BME280;7138;49.246;9.100;2023-01-24T07:43:47;100435.47;;;4.02;94.83
14120;BME280;7138;49.246;9.100;2023-01-24T07:46:13;100440.75;;;4.05;95.73
14120;BME280;7138;49.246;9.100;2023-01-24T07:48:38;100433.97;;;4.06;95.59
14120;BME280;7138;49.246;9.100;2023-01-24T07:51:05;100446.59;;;4.03;95.41
14120;BME280;7138;49.246;9.100;2023-01-24T07:53:31;100447.25;;;4.15;95.05
14120;BME280;7138;49.246;9.100;2023-01-24T07:55:59;100443.75;;;4.13;94.82
14120;BME280;7138;49.246;9.100;2023-01-24T07:58:27;100448.75;;;4.11;94.89
14120;BME280;7138;49.246;9.100;2023-01-24T08:00:53;100454.53;;;4.07;95.34
14120;BME280;7138;49.246;9.100;2023-01-24T08:03:19;100466.28;;;4.04;95.19
14120;BME280;7138;49.246;9.100;2023-01-24T08:05:45;100467.16;;;4.04;95.08
14120;BME280;7138;49.246;9.100;2023-01-24T08:08:10;100467.00;;;4.01;95.22
14120;BME280;7138;49.246;9.100;2023-01-24T08:10:36;100470.13;;;4.12;95.26
14120;BME280;7138;49.246;9.100;2023-01-24T08:13:02;100473.88;;;4.18;94.88
14120;BME280;7138;49.246;9.100;2023-01-24T08:15:29;100469.72;;;4.20;94.80
14120;BME280;7138;49.246;9.100;2023-01-24T08:17:55;100475.72;;;4.21;94.81
14120;BME280;7138;49.246;9.100;2023-01-24T08:20:21;100487.00;;;4.24;94.58
14120;BME280;7138;49.246;9.100;2023-01-24T08:22:47;100487.97;;;4.26;94.79
14120;BME280;7138;49.246;9.100;2023-01-24T08:25:13;100496.94;;;4.34;94.79
14120;BME280;7138;49.246;9.100;2023-01-24T08:27:40;100491.91;;;4.36;94.61
14120;BME280;7138;49.246;9.100;2023-01-24T08:30:08;100489.19;;;4.33;94.17
14120;BME280;7138;49.246;9.100;2023-01-24T08:32:37;100484.78;;;4.30;94.31
14120;BME280;7138;49.246;9.100;2023-01-24T08:35:04;100496.63;;;4.28;94.42
14120;BME280;7138;49.246;9.100;2023-01-24T08:37:30;100496.13;;;4.35;94.50
14120;BME280;7138;49.246;9.100;2023-01-24T08:39:56;100486.94;;;4.39;94.21
14120;BME280;7138;49.246;9.100;2023-01-24T08:42:23;100492.34;;;4.29;95.06
14120;BME280;7138;49.246;9.100;2023-01-24T08:44:50;100497.47;;;4.29;94.54
14120;BME280;7138;49.246;9.100;2023-01-24T08:47:16;100503.25;;;4.25;94.61
14120;BME280;7138;49.246;9.100;2023-01-24T08:49:43;100503.66;;;4.32;94.74
14120;BME280;7138;49.246;9.100;2023-01-24T08:52:10;100508.78;;;4.32;94.06
14120;BME280;7138;49.246;9.100;2023-01-24T08:54:36;100507.03;;;4.31;94.48
14120;BME280;7138;49.246;9.100;2023-01-24T08:57:02;100520.00;;;4.34;94.24
14120;BME280;7138;49.246;9.100;2023-01-24T08:59:28;100519.84;;;4.31;94.78
14120;BME280;7138;49.246;9.100;2023-01-24T09:01:54;100527.50;;;4.31;94.37
14120;BME280;7138;49.246;9.100;2023-01-24T09:04:20;100521.66;;;4.34;94.65
14120;BME280;7138;49.246;9.100;2023-01-24T09:06:47;100528.63;;;4.36;94.76
14120;BME280;7138;49.246;9.100;2023-01-24T09:09:16;100534.53;;;4.35;94.75
14120;BME280;7138;49.246;9.100;2023-01-24T09:11:45;100532.63;;;4.31;94.66
14120;BME280;7138;49.246;9.100;2023-01-24T09:14:11;100540.31;;;4.31;94.95
14120;BME280;7138;49.246;9.100;2023-01-24T09:16:37;100535.09;;;4.30;94.71
14120;BME280;7138;49.246;9.100;2023-01-24T09:19:03;100540.22;;;4.30;94.95
14120;BME280;7138;49.246;9.100;2023-01-24T09:21:29;100537.91;;;4.34;94.71
14120;BME280;7138;49.246;9.100;2023-01-24T09:23:56;100539.81;;;4.38;94.58
14120;BME280;7138;49.246;9.100;2023-01-24T09:26:22;100542.22;;;4.35;94.82
14120;BME280;7138;49.246;9.100;2023-01-24T09:28:48;100545.81;;;4.39;95.06
14120;BME280;7138;49.246;9.100;2023-01-24T09:31:14;100545.53;;;4.49;94.86
14120;BME280;7138;49.246;9.100;2023-01-24T09:33:40;100543.91;;;4.51;94.70
14120;BME280;7138;49.246;9.100;2023-01-24T09:36:08;100542.25;;;4.52;94.20
14120;BME280;7138;49.246;9.100;2023-01-24T09:38:34;100543.03;;;4.51;94.07
14120;BME280;7138;49.246;9.100;2023-01-24T09:41:11;100542.06;;;4.49;93.91
14120;BME280;7138;49.246;9.100;2023-01-24T09:43:46;100549.50;;;4.44;94.12
14120;BME280;7138;49.246;9.100;2023-01-24T09:46:24;100547.25;;;4.50;94.27
14120;BME280;7138;49.246;9.100;2023-01-24T09:49:00;100542.81;;;4.46;94.28
14120;BME280;7138;49.246;9.100;2023-01-24T09:51:31;100549.28;;;4.39;94.32
14120;BME280;7138;49.246;9.100;2023-01-24T09:54:03;100546.25;;;4.47;94.52
14120;BME280;7138;49.246;9.100;2023-01-24T09:56:35;100545.53;;;4.49;94.43
14120;BME280;7138;49.246;9.100;2023-01-24T09:59:22;100551.03;;;4.57;94.03
14120;BME280;7138;49.246;9.100;2023-01-24T10:01:51;100540.31;;;4.48;93.57
14120;BME280;7138;49.246;9.100;2023-01-24T10:04:21;100545.25;;;4.45;93.93
14120;BME280;7138;49.246;9.100;2023-01-24T10:07:29;100540.09;;;4.43;94.51
14120;BME280;7138;49.246;9.100;2023-01-24T10:10:10;100537.19;;;4.37;94.90
14120;BME280;7138;49.246;9.100;2023-01-24T10:12:51;100531.50;;;4.43;94.57
14120;BME280;7138;49.246;9.100;2023-01-24T10:15:33;100540.16;;;4.45;94.72
14120;BME280;7138;49.246;9.100;2023-01-24T10:18:29;100526.06;;;4.36;94.91
14120;BME280;7138;49.246;9.100;2023-01-24T10:21:31;100507.72;;;4.29;94.97
14120;BME280;7138;49.246;9.100;2023-01-24T10:24:07;100536.06;;;4.48;95.19
14120;BME280;7138;49.246;9.100;2023-01-24T10:26:42;100536.16;;;4.50;95.32
14120;BME280;7138;49.246;9.100;2023-01-24T10:29:17;100536.00;;;4.47;94.74
14120;BME280;7138;49.246;9.100;2023-01-24T10:31:54;100539.75;;;4.53;94.60
14120;BME280;7138;49.246;9.100;2023-01-24T10:34:31;100537.13;;;4.52;94.14
14120;BME280;7138;49.246;9.100;2023-01-24T10:37:04;100537.84;;;4.49;94.47
14120;BME280;7138;49.246;9.100;2023-01-24T10:39:31;100546.94;;;4.44;94.37
14120;BME280;7138;49.246;9.100;2023-01-24T10:41:57;100535.84;;;4.44;94.94
14120;BME280;7138;49.246;9.100;2023-01-24T10:44:27;100532.72;;;4.49;94.33
14120;BME280;7138;49.246;9.100;2023-01-24T10:47:40;100520.47;;;4.60;94.79
14120;BME280;7138;49.246;9.100;2023-01-24T10:50:12;100522.13;;;4.59;94.41
14120;BME280;7138;49.246;9.100;2023-01-24T10:52:38;100522.97;;;4.58;94.41
14120;BME280;7138;49.246;9.100;2023-01-24T10:55:24;100517.09;;;4.61;94.03
14120;BME280;7138;49.246;9.100;2023-01-24T10:57:53;100519.84;;;4.64;94.74
14120;BME280;7138;49.246;9.100;2023-01-24T11:00:27;100525.44;;;4.73;93.64
14120;BME280;7138;49.246;9.100;2023-01-24T11:02:58;100520.84;;;4.83;93.82
14120;BME280;7138;49.246;9.100;2023-01-24T11:05:35;100516.44;;;4.81;93.21
14120;BME280;7138;49.246;9.100;2023-01-24T11:08:03;100517.75;;;4.73;92.86
14120;BME280;7138;49.246;9.100;2023-01-24T11:10:36;100517.00;;;4.75;93.16
14120;BME280;7138;49.246;9.100;2023-01-24T11:13:24;100510.94;;;4.73;93.50
14120;BME280;7138;49.246;9.100;2023-01-24T11:15:58;100515.34;;;4.76;93.60
14120;BME280;7138;49.246;9.100;2023-01-24T11:18:28;100517.75;;;4.73;92.91
14120;BME280;7138;49.246;9.100;2023-01-24T11:21:11;100518.84;;;4.78;93.49
14120;BME280;7138;49.246;9.100;2023-01-24T11:23:38;100518.84;;;4.78;93.66
14120;BME280;7138;49.246;9.100;2023-01-24T11:26:20;100512.06;;;4.78;92.52
14120;BME280;7138;49.246;9.100;2023-01-24T11:28:57;100504.84;;;4.71;93.34
14120;BME280;7138;49.246;9.100;2023-01-24T11:31:30;100518.38;;;4.85;93.19
14120;BME280;7138;49.246;9.100;2023-01-24T11:34:35;100508.59;;;4.94;92.52
14120;BME280;7138;49.246;9.100;2023-01-24T11:37:22;100513.41;;;4.88;93.03
14120;BME280;7138;49.246;9.100;2023-01-24T11:40:02;100509.59;;;4.80;92.75
14120;BME280;7138;49.246;9.100;2023-01-24T11:42:39;100517.59;;;4.86;93.44
14120;BME280;7138;49.246;9.100;2023-01-24T11:45:44;100505.38;;;4.98;93.66
14120;BME280;7138;49.246;9.100;2023-01-24T11:48:20;100500.31;;;5.00;93.15
14120;BME280;7138;49.246;9.100;2023-01-24T11:51:01;100503.13;;;5.04;93.26
14120;BME280;7138;49.246;9.100;2023-01-24T11:54:02;100500.56;;;5.04;92.39
14120;BME280;7138;49.246;9.100;2023-01-24T11:56:40;100505.59;;;5.03;92.74
14120;BME280;7138;49.246;9.100;2023-01-24T11:59:35;100494.94;;;5.11;92.74
14120;BME280;7138;49.246;9.100;2023-01-24T12:02:36;100493.50;;;5.16;92.98
14120;BME280;7138;49.246;9.100;2023-01-24T12:05:42;100491.47;;;5.11;93.03
14120;BME280;7138;49.246;9.100;2023-01-24T12:08:35;100495.59;;;5.07;92.85
14120;BME280;7138;49.246;9.100;2023-01-24T12:11:14;100488.34;;;5.16;92.78
14120;BME280;7138;49.246;9.100;2023-01-24T12:13:48;100476.97;;;5.11;92.32
14120;BME280;7138;49.246;9.100;2023-01-24T12:16:33;100484.47;;;5.24;92.36
14120;BME280;7138;49.246;9.100;2023-01-24T12:19:37;100479.63;;;5.13;92.22
14120;BME280;7138;49.246;9.100;2023-01-24T12:22:17;100471.78;;;5.10;93.05
14120;BME280;7138;49.246;9.100;2023-01-24T12:24:48;100470.75;;;5.06;92.66
14120;BME280;7138;49.246;9.100;2023-01-24T12:27:22;100471.34;;;5.01;92.90
14120;BME280;7138;49.246;9.100;2023-01-24T12:29:55;100470.91;;;5.09;92.61
14120;BME280;7138;49.246;9.100;2023-01-24T12:32:27;100460.72;;;5.11;92.47
14120;BME280;7138;49.246;9.100;2023-01-24T12:35:04;100469.50;;;4.98;92.63
14120;BME280;7138;49.246;9.100;2023-01-24T12:37:47;100464.53;;;5.01;93.04
14120;BME280;7138;49.246;9.100;2023-01-24T12:40:23;100474.47;;;4.95;92.17
14120;BME280;7138;49.246;9.100;2023-01-24T12:42:59;100460.84;;;4.96;92.90
14120;BME280;7138;49.246;9.100;2023-01-24T12:45:35;100463.03;;;4.88;92.59
14120;BME280;7138;49.246;9.100;2023-01-24T12:48:13;100460.63;;;4.91;92.80
14120;BME280;7138;49.246;9.100;2023-01-24T12:50:52;100437.16;;;4.84;92.33
14120;BME280;7138;49.246;9.100;2023-01-24T12:53:28;100457.97;;;4.90;93.38
14120;BME280;7138;49.246;9.100;2023-01-24T12:56:01;100455.41;;;4.90;93.18
14120;BME280;7138;49.246;9.100;2023-01-24T12:58:36;100451.41;;;4.95;92.68
14120;BME280;7138;49.246;9.100;2023-01-24T13:01:32;100456.44;;;4.93;92.01
14120;BME280;7138;49.246;9.100;2023-01-24T13:04:15;100449.56;;;4.92;92.71
14120;BME280;7138;49.246;9.100;2023-01-24T13:06:58;100460.81;;;4.78;93.28
14120;BME280;7138;49.246;9.100;2023-01-24T13:09:36;100467.59;;;4.78;93.17
14120;BME280;7138;49.246;9.100;2023-01-24T13:12:14;100463.47;;;4.80;93.30
14120;BME280;7138;49.246;9.100;2023-01-24T13:14:44;100461.06;;;4.67;93.91
14120;BME280;7138;49.246;9.100;2023-01-24T13:17:38;100468.75;;;4.67;93.71
14120;BME280;7138;49.246;9.100;2023-01-24T13:20:35;100466.03;;;4.80;93.95
14120;BME280;7138;49.246;9.100;2023-01-24T13:23:31;100464.25;;;4.79;93.49
14120;BME280;7138;49.246;9.100;2023-01-24T13:26:16;100464.88;;;4.75;94.06
14120;BME280;7138;49.246;9.100;2023-01-24T13:28:58;100463.94;;;4.73;93.81
14120;BME280;7138;49.246;9.100;2023-01-24T13:31:45;100465.63;;;4.72;93.49
14120;BME280;7138;49.246;9.100;2023-01-24T13:34:19;100459.56;;;4.70;94.19
14120;BME280;7138;49.246;9.100;2023-01-24T13:36:49;100454.00;;;4.79;94.21